Latest Weather Observations for Daly Waters

IDD60801

Issued at 11:31 pm CST Tuesday 28 April 2015 (issued every 30 minutes, with the page automatically refreshed every 10 minutes)

About weather observations | Map of weather stations | Latest weather observations for NT | Other Formats
Station Details ID: 014626 Name: DALY WATERS AIRSTRIP Lat: -16.26 Lon: 133.38 Height: 209.84 m
Data from the previous 72 hours. | See also: Recent months at Daly Waters
Date/Time
CST
Temp
°C
App
Temp
°C
Dew
Point
Rel
Hum
%
Delta-T
°C
Wind Press
QNH
hPa
Press
MSL
hPa
Rain
since 9 am
mm
Dir
 
Spd
km/h
Gust
km/h
Spd
kts
Gust
kts
28/11:30pm 20.8 17.5 2.6 30 8.6 SE 9 17 5 9 1017.0 1015.8 0.0
28/11:00pm 20.7 17.8 2.5 30 8.6 SE 7 13 4 7 1017.2 1016.0 0.0
28/10:30pm 21.4 18.1 2.6 29 8.9 SSE 9 17 5 9 1017.3 1016.1 0.0
28/10:00pm 21.2 17.8 3.9 32 8.4 SSE 11 17 6 9 1017.2 1016.0 0.0
28/09:55pm 20.6 17.5 3.8 33 8.1 SSE 9 15 5 8 1017.1 1015.9 0.0
28/09:30pm 15.6 13.4 5.2 50 5.0 SSE 6 9 3 5 1017.1 1015.9 0.0
28/09:00pm 16.4 14.0 4.4 45 5.7 SSE 6 7 3 4 1016.7 1015.4 0.0
28/08:30pm 16.9 14.6 4.9 45 5.8 SSE 6 7 3 4 1016.3 1015.0 0.0
28/08:00pm 17.2 14.9 4.9 44 5.9 SSE 6 7 3 4 1015.8 1014.5 0.0
28/07:30pm 18.5 16.4 3.9 38 7.0 S 4 6 2 3 1015.2 1013.9 0.0
28/07:00pm 21.0 18.6 2.3 29 8.8 S 4 4 2 2 1014.8 1013.5 0.0
28/06:59pm 21.2 18.9 2.5 29 8.9 S 4 6 2 3 1014.8 1013.5 0.0
28/06:30pm 26.2 23.3 1.5 20 11.9 SSE 6 9 3 5 1014.4 1013.1 0.0
28/06:00pm 28.4 24.5 1.0 17 13.3 SSE 11 19 6 10 1014.1 1012.8 0.0
28/05:30pm 29.7 25.3 0.3 15 14.2 SSE 13 22 7 12 1013.9 1012.6 0.0
28/05:00pm 30.6 27.1 1.0 15 14.6 SSE 9 17 5 9 1013.7 1012.4 0.0
28/04:30pm 31.1 27.2 1.4 15 14.8 SE 11 19 6 10 1013.7 1012.4 0.0
28/04:00pm 31.4 27.1 0.7 14 15.1 SSE 13 24 7 13 1013.6 1012.3 0.0
28/03:30pm 32.1 28.1 0.2 13 15.7 ESE 11 20 6 11 1013.7 1012.4 0.0
28/03:00pm 31.8 27.7 0.0 13 15.5 E 11 17 6 9 1013.9 1012.6 0.0
28/02:30pm 32.5 29.4 1.6 14 15.6 ESE 7 17 4 9 1014.3 1013.0 0.0
28/02:00pm 31.1 27.1 0.5 14 15.0 ESE 11 19 6 10 1014.7 1013.4 0.0
28/01:30pm 30.7 27.2 1.1 15 14.6 E 9 20 5 11 1015.1 1013.8 0.0
28/01:00pm 30.1 26.1 0.6 15 14.4 ESE 11 17 6 9 1015.7 1014.4 0.0
28/12:30pm 29.7 25.0 1.2 16 14.0 ESE 15 26 8 14 1016.1 1014.8 0.0
28/12:00pm 29.6 25.5 2.0 17 13.7 E 13 24 7 13 1016.7 1015.4 0.0
28/11:30am 28.4 23.8 1.8 18 13.1 ESE 15 24 8 13 1017.2 1016.0 0.0
28/11:00am 27.8 24.2 2.8 20 12.4 ESE 11 20 6 11 1017.8 1016.6 0.0
28/10:30am 25.9 21.7 1.9 21 11.6 ESE 13 24 7 13 1018.2 1017.0 0.0
28/10:00am 24.7 19.7 1.6 22 11.0 ESE 17 24 9 13 1018.3 1017.1 0.0
28/09:30am 23.2 18.4 2.7 26 9.9 ESE 17 24 9 13 1018.3 1017.1 0.0
28/09:00am 21.6 16.4 2.3 28 9.1 ESE 19 32 10 17 1018.3 1017.1 0.0
28/08:30am 20.3 15.4 2.2 30 8.4 SE 17 28 9 15 1018.2 1017.0 0.0
28/08:00am 18.8 13.9 1.8 32 7.8 SE 17 30 9 16 1018.2 1017.0 0.0
28/07:30am 17.8 13.2 1.7 34 7.3 SE 15 24 8 13 1017.9 1016.7 0.0
28/07:00am 16.9 13.0 1.0 34 7.1 SE 11 19 6 10 1017.7 1016.5 0.0
28/06:30am 16.6 13.0 0.7 34 7.0 SE 9 17 5 9 1017.3 1016.1 0.0
28/06:00am 16.8 13.2 0.9 34 7.0 SE 9 17 5 9 1017.1 1015.9 0.0
28/05:30am 16.7 13.5 0.8 34 7.0 SE 7 13 4 7 1016.8 1015.5 0.0
28/05:00am 16.9 13.7 0.5 33 7.2 SE 7 17 4 9 1016.5 1015.2 0.0
28/04:30am 17.2 13.6 0.8 33 7.3 SE 9 17 5 9 1016.3 1015.0 0.0
28/04:00am 17.0 13.5 1.0 34 7.1 SE 9 15 5 8 1016.2 1014.9 0.0
28/03:30am 16.6 13.5 1.1 35 6.9 SE 7 9 4 5 1016.4 1015.1 0.0
28/03:00am 16.6 13.6 0.7 34 7.0 ESE 6 9 3 5 1016.4 1015.1 0.0
28/02:30am 17.8 14.7 1.3 33 7.4 SE 7 11 4 6 1016.6 1015.3 0.0
28/02:00am 17.9 14.4 1.4 33 7.4 SE 9 13 5 7 1016.6 1015.3 0.0
28/01:30am 18.1 15.0 1.6 33 7.5 SE 7 11 4 6 1016.7 1015.4 0.0
28/01:00am 18.3 15.4 1.3 32 7.7 SE 6 9 3 5 1017.1 1015.9 0.0
28/12:30am 19.1 16.0 1.1 30 8.1 SE 7 13 4 7 1017.3 1016.1 0.0
28/12:00am 20.1 16.6 1.0 28 8.7 SE 9 13 5 7 1017.4 1016.2 0.0
 
Date/Time
CST
Temp
°C
App
Temp
°C
Dew
Point
Rel
Hum
%
Delta-T
°C
Wind Press
QNH
hPa
Press
MSL
hPa
Rain
since 9 am
mm
Dir
 
Spd
km/h
Gust
km/h
Spd
kts
Gust
kts
27/11:30pm 20.9 17.4 1.2 27 9.1 SE 9 20 5 11 1017.6 1016.4 0.0
27/11:00pm 21.6 17.6 0.8 25 9.6 SE 11 20 6 11 1017.7 1016.5 0.0
27/10:30pm 22.1 18.2 1.2 25 9.7 SE 11 20 6 11 1017.7 1016.5 0.0
27/10:00pm 22.6 18.4 1.6 25 9.9 SSE 13 20 7 11 1017.7 1016.5 0.0
27/09:30pm 21.7 18.3 1.9 27 9.3 SSE 9 17 5 9 1017.7 1016.5 0.0
27/09:00pm 20.6 17.6 2.0 29 8.7 SSE 7 11 4 6 1017.6 1016.4 0.0
27/08:30pm 19.3 16.5 3.1 34 7.6 SSE 7 9 4 5 1017.2 1016.0 0.0
27/08:00pm 16.6 14.4 5.3 47 5.5 S 6 7 3 4 1016.6 1015.3 0.0
27/07:30pm 17.7 15.9 5.3 44 6.0 S 4 6 2 3 1016.2 1014.9 0.0
27/07:00pm 19.6 16.9 2.9 33 7.9 S 6 6 3 3 1015.8 1014.5 0.0
27/06:30pm 23.6 21.2 1.9 24 10.3 S 4 6 2 3 1015.5 1014.2 0.0
27/06:00pm 28.0 24.8 0.7 17 13.1 SSE 7 15 4 8 1015.2 1013.9 0.0
27/05:30pm 29.4 26.2 1.0 16 13.9 SSE 7 15 4 8 1014.7 1013.4 0.0
27/05:00pm 29.8 26.2 0.4 15 14.3 SE 9 17 5 9 1014.4 1013.1 0.0
27/04:30pm 30.3 26.3 0.8 15 14.4 SE 11 19 6 10 1014.0 1012.7 0.0
27/04:00pm 30.3 26.0 0.8 15 14.4 SE 13 24 7 13 1014.0 1012.7 0.0
27/03:30pm 30.6 27.1 1.0 15 14.6 SSE 9 17 5 9 1013.8 1012.5 0.0
27/03:00pm 30.4 26.1 0.9 15 14.5 SE 13 20 7 11 1014.0 1012.7 0.0
27/02:30pm 30.8 27.7 1.2 15 14.6 ESE 7 17 4 9 1014.3 1013.0 0.0
27/02:00pm 30.3 26.5 1.7 16 14.2 SE 11 24 6 13 1014.6 1013.3 0.0
27/01:30pm 30.3 26.9 1.7 16 14.2 E 9 15 5 8 1015.0 1013.7 0.0
27/01:00pm 29.4 25.2 1.8 17 13.7 ESE 13 20 7 11 1015.3 1014.0 0.0
27/12:30pm 29.1 25.4 2.4 18 13.3 ESE 11 20 6 11 1015.9 1014.6 0.0
27/12:00pm 27.8 23.3 2.1 19 12.6 SE 15 24 8 13 1016.5 1015.2 0.0
27/11:30am 27.7 23.2 2.0 19 12.6 ESE 15 26 8 14 1017.0 1015.8 0.0
27/11:00am 27.3 22.8 2.4 20 12.3 ESE 15 22 8 12 1017.4 1016.2 0.0
27/10:30am 25.6 21.1 2.3 22 11.3 SE 15 24 8 13 1017.6 1016.4 0.0
27/10:00am 24.9 20.4 2.4 23 10.9 ESE 15 24 8 13 1017.9 1016.7 0.0
27/09:30am 23.3 18.1 2.2 25 10.1 ESE 19 32 10 17 1017.7 1016.5 0.0
27/09:00am 22.0 17.6 2.7 28 9.2 SE 15 24 8 13 1017.8 1016.6 0.0
27/08:30am 20.3 15.8 2.2 30 8.4 SE 15 22 8 12 1017.7 1016.5 0.0
27/08:00am 18.9 15.1 1.9 32 7.8 SE 11 24 6 13 1017.4 1016.2 0.0
27/07:30am 17.1 14.1 2.3 37 6.7 SE 7 13 4 7 1017.4 1016.2 0.0
27/07:00am 15.8 12.7 1.5 38 6.4 SE 7 13 4 7 1017.1 1015.9 0.0
27/06:30am 15.6 12.5 1.4 38 6.3 SE 7 13 4 7 1016.9 1015.6 0.0
27/06:00am 16.1 12.9 0.7 35 6.7 SE 7 13 4 7 1016.6 1015.3 0.0
27/05:30am 16.4 13.2 0.5 34 6.9 SE 7 13 4 7 1016.4 1015.1 0.0
27/05:00am 16.7 13.5 0.8 34 7.0 SE 7 11 4 6 1016.2 1014.9 0.0
27/04:30am 16.9 13.4 1.0 34 7.0 SE 9 13 5 7 1016.2 1014.9 0.0
27/04:00am 16.4 13.2 0.9 35 6.8 SE 7 13 4 7 1016.1 1014.8 0.0
27/03:30am 16.0 13.1 1.3 37 6.5 SE 6 9 3 5 1015.9 1014.6 0.0
27/03:00am 16.5 13.5 1.0 35 6.8 SE 6 9 3 5 1016.1 1014.8 0.0
27/02:30am 17.2 14.2 0.8 33 7.3 SE 6 9 3 5 1016.2 1014.9 0.0
27/02:00am 18.1 14.5 0.7 31 7.8 SE 9 15 5 8 1016.2 1014.9 0.0
27/01:30am 18.3 15.1 0.9 31 7.8 SE 7 13 4 7 1016.3 1015.0 0.0
27/01:00am 19.0 15.5 1.1 30 8.1 SE 9 13 5 7 1016.6 1015.3 0.0
27/12:30am 19.4 15.9 1.4 30 8.2 SE 9 15 5 8 1016.9 1015.6 0.0
27/12:00am 20.0 16.6 1.9 30 8.4 SE 9 17 5 9 1017.0 1015.8 0.0
 
Date/Time
CST
Temp
°C
App
Temp
°C
Dew
Point
Rel
Hum
%
Delta-T
°C
Wind Press
QNH
hPa
Press
MSL
hPa
Rain
since 9 am
mm
Dir
 
Spd
km/h
Gust
km/h
Spd
kts
Gust
kts
26/11:30pm 20.6 16.8 2.0 29 8.7 SE 11 20 6 11 1017.3 1016.1 0.0
26/11:00pm 21.6 17.5 2.3 28 9.1 SE 13 20 7 11 1017.3 1016.1 0.0
26/10:30pm 21.7 18.0 2.4 28 9.1 SE 11 17 6 9 1017.4 1016.2 0.0
26/10:00pm 21.1 17.9 2.9 30 8.7 SSE 9 13 5 7 1017.3 1016.1 0.0
26/09:30pm 21.1 17.9 3.3 31 8.5 SSE 9 13 5 7 1017.3 1016.1 0.0
26/09:00pm 21.4 18.3 3.6 31 8.6 SSE 9 13 5 7 1017.3 1016.1 0.0
26/08:30pm 20.5 17.9 4.1 34 8.0 S 7 9 4 5 1016.8 1015.5 0.0
26/08:00pm 18.2 16.0 5.1 42 6.4 S 6 7 3 4 1016.4 1015.1 0.0
26/07:30pm 18.9 16.6 4.7 39 6.9 S 6 7 3 4 1016.1 1014.8 0.0
26/07:00pm 20.6 18.0 3.3 32 8.3 SSE 6 6 3 3 1015.7 1014.4 0.0
26/06:30pm 24.8 22.0 2.9 24 10.7 SSE 7 9 4 5 1015.3 1014.0 0.0
26/06:00pm 26.9 24.1 3.4 22 11.8 SSE 7 15 4 8 1015.0 1013.7 0.0
26/05:30pm 28.2 25.4 3.1 20 12.6 SE 7 13 4 7 1014.7 1013.4 0.0
26/05:00pm 28.8 25.2 2.9 19 13.0 SE 11 17 6 9 1014.5 1013.2 0.0
26/04:30pm 29.5 25.9 2.7 18 13.5 SSE 11 19 6 10 1014.3 1013.0 0.0
26/04:00pm 29.8 26.7 3.7 19 13.4 SSE 9 20 5 11 1014.3 1013.0 0.0
26/03:30pm 29.3 25.4 3.3 19 13.2 S 13 20 7 11 1014.3 1013.0 0.0
26/03:00pm 29.7 26.2 3.6 19 13.4 SSE 11 22 6 12 1014.4 1013.1 0.0
26/02:30pm 29.3 25.8 3.3 19 13.2 SE 11 20 6 11 1014.7 1013.4 0.0
26/02:00pm 28.5 24.1 2.7 19 12.9 SSE 15 24 8 13 1015.2 1013.9 0.0
26/01:30pm 28.2 23.9 3.1 20 12.6 SE 15 24 8 13 1015.7 1014.4 0.0
26/01:00pm 27.7 23.8 3.4 21 12.2 SSE 13 26 7 14 1016.0 1014.7 0.0
26/12:30pm 26.8 22.0 2.7 21 11.9 SSE 17 28 9 15 1016.5 1015.2 0.0
26/12:00pm 26.4 22.1 3.0 22 11.6 SSE 15 24 8 13 1016.9 1015.6 0.0
26/11:30am 25.8 21.5 3.1 23 11.2 SE 15 28 8 15 1017.4 1016.2 0.0
26/11:00am 24.3 18.9 2.5 24 10.6 SSE 20 32 11 17 1017.9 1016.7 0.0
26/10:30am 23.6 18.4 2.4 25 10.2 SE 19 33 10 18 1018.3 1017.1 0.0
26/10:00am 22.8 17.4 2.3 26 9.8 SE 20 33 11 18 1018.6 1017.3 0.0
26/09:30am 21.8 16.0 2.5 28 9.2 SE 22 39 12 21 1018.6 1017.3 0.0
26/09:00am 20.9 15.1 2.2 29 8.8 SE 22 35 12 19 1018.3 1017.1 0.0
26/08:30am 20.1 14.7 2.5 31 8.2 SE 20 35 11 19 1018.1 1016.9 0.0
26/08:00am 19.4 15.5 3.2 34 7.7 SE 13 24 7 13 1017.9 1016.7 0.0
26/07:30am 18.4 14.0 2.7 35 7.3 SE 15 28 8 15 1017.6 1016.4 0.0
26/07:00am 17.7 13.7 2.8 37 6.9 SE 13 24 7 13 1017.1 1015.9 0.0
26/06:30am 18.4 13.6 2.7 35 7.3 SE 17 28 9 15 1016.8 1015.5 0.0
26/06:00am 18.5 14.0 2.4 34 7.4 SE 15 28 8 15 1016.7 1015.4 0.0
26/05:30am 19.0 14.2 2.4 33 7.7 SE 17 26 9 14 1016.5 1015.2 0.0
26/05:00am 18.8 15.1 2.2 33 7.7 SE 11 19 6 10 1016.2 1014.9 0.0
26/04:30am 19.5 15.8 2.4 32 8.0 SE 11 24 6 13 1015.9 1014.6 0.0
26/04:00am 19.7 16.0 2.6 32 8.0 SE 11 24 6 13 1015.8 1014.5 0.0
26/03:30am 19.6 16.4 2.9 33 7.9 SE 9 17 5 9 1015.4 1014.1 0.0
26/03:00am 19.4 16.5 2.7 33 7.8 SE 7 15 4 8 1015.4 1014.1 0.0
26/02:30am 19.6 16.7 2.5 32 8.0 SE 7 13 4 7 1015.2 1013.9 0.0
26/02:00am 20.4 16.8 2.7 31 8.4 SE 11 19 6 10 1015.2 1013.9 0.0
26/01:30am 20.8 17.1 2.6 30 8.6 SE 11 19 6 10 1015.4 1014.1 0.0
26/01:00am 21.1 17.8 2.4 29 8.8 SE 9 17 5 9 1015.5 1014.2 0.0
26/12:30am 21.0 17.7 2.3 29 8.8 SE 9 15 5 8 1015.6 1014.3 0.0
26/12:00am 21.5 18.1 1.7 27 9.2 SE 9 17 5 9 1015.7 1014.4 0.0

Other Formats:

Comma delimited format used in spreadsheet applications
http://www.bom.gov.au/fwo/IDD60801/IDD60801.94234.axf

JavaScript Object Notation format (JSON) in row-major order
http://www.bom.gov.au/fwo/IDD60801/IDD60801.94234.json